Time;durP1;ratioP1;P1;durP2;ratioP2;P2;SDS_P1;SDS_P2;PMS_P1;PMS_P2;Temp;Humidity;BMP_temperature;BMP_pressure;BME280_temperature;BME280_humidity;BME280_pressure;Samples;Min_cycle;Max_cycle;Signal;HPM_P1;HPM_P2
2024/03/31 00:00:19;;;;;;;34.40;11.10;;;;;;;;;;5036073;28;20045;-58
2024/03/31 00:02:45;;;;;;;35.38;11.48;;;;;;;;;;5035477;28;20045;-58
2024/03/31 00:05:12;;;;;;;32.67;10.75;;;;;;;;;;5035590;28;20049;-57
2024/03/31 00:07:38;;;;;;;39.65;10.68;;;;;;;;;;5034907;28;20052;-58
2024/03/31 00:10:05;;;;;;;42.03;10.85;;;;;;;;;;5035055;28;20128;-58
2024/03/31 00:12:33;;;;;;;26.65;9.35;;;;;;;;;;5032025;28;20064;-56
2024/03/31 00:14:59;;;;;;;31.67;10.95;;;;;;;;;;5008466;28;20054;-58
2024/03/31 00:17:25;;;;;;;25.20;8.93;;;;;;;;;;5005515;28;20052;-57
2024/03/31 00:19:53;;;;;;;31.63;11.68;;;;;;;;;;5015182;28;20054;-57
2024/03/31 00:22:19;;;;;;;31.77;9.50;;;;;;;;;;5023245;28;20049;-57
2024/03/31 00:24:46;;;;;;;34.33;10.13;;;;;;;;;;5015072;28;20497;-57
2024/03/31 00:27:12;;;;;;;36.30;9.73;;;;;;;;;;4998428;28;20061;-58
2024/03/31 00:29:40;;;;;;;28.75;8.95;;;;;;;;;;4999141;28;20049;-56
2024/03/31 00:32:06;;;;;;;32.50;10.90;;;;;;;;;;5014653;28;20056;-55
2024/03/31 00:34:33;;;;;;;41.40;12.20;;;;;;;;;;5006897;28;20072;-52
2024/03/31 00:36:59;;;;;;;41.75;12.55;;;;;;;;;;5014586;28;20045;-54
2024/03/31 00:39:26;;;;;;;37.40;12.77;;;;;;;;;;5014834;28;20054;-50
2024/03/31 00:41:54;;;;;;;37.22;11.95;;;;;;;;;;5014663;28;20355;-57
2024/03/31 00:44:21;;;;;;;34.03;11.25;;;;;;;;;;5014131;28;20065;-54
2024/03/31 00:46:48;;;;;;;36.10;11.30;;;;;;;;;;5014821;28;20680;-54
2024/03/31 00:49:15;;;;;;;31.13;10.30;;;;;;;;;;5014373;28;20138;-56
2024/03/31 00:51:41;;;;;;;27.58;9.07;;;;;;;;;;5014289;28;20046;-54
2024/03/31 00:54:08;;;;;;;34.58;9.10;;;;;;;;;;5014210;28;20056;-58
2024/03/31 00:56:34;;;;;;;34.30;9.18;;;;;;;;;;5014187;28;20050;-54
2024/03/31 00:59:01;;;;;;;27.88;8.80;;;;;;;;;;5014254;28;20053;-58
2024/03/31 01:01:27;;;;;;;29.35;9.18;;;;;;;;;;4995548;28;20050;-54
2024/03/31 01:03:55;;;;;;;34.00;10.18;;;;;;;;;;5000456;28;20544;-55
2024/03/31 01:06:23;;;;;;;26.83;9.95;;;;;;;;;;5014256;28;20046;-57
2024/03/31 01:08:51;;;;;;;27.73;8.52;;;;;;;;;;5009017;28;20122;-57
2024/03/31 01:11:18;;;;;;;26.20;10.05;;;;;;;;;;4994832;28;20050;-57
2024/03/31 01:13:46;;;;;;;25.45;9.15;;;;;;;;;;5007334;28;20508;-51
2024/03/31 01:16:13;;;;;;;30.35;9.15;;;;;;;;;;5014218;28;20050;-57
2024/03/31 01:18:40;;;;;;;25.35;8.68;;;;;;;;;;5017673;28;20049;-59
2024/03/31 01:21:08;;;;;;;35.53;11.68;;;;;;;;;;5018023;28;20049;-55
2024/03/31 01:23:42;;;;;;;20.70;8.63;;;;;;;;;;5016873;28;20128;-57
2024/03/31 01:26:10;;;;;;;33.00;10.15;;;;;;;;;;5025710;28;20065;-58
2024/03/31 01:28:37;;;;;;;30.05;8.65;;;;;;;;;;5017337;28;20571;-58
2024/03/31 01:31:03;;;;;;;35.35;10.77;;;;;;;;;;5018267;28;20486;-58
2024/03/31 01:33:30;;;;;;;34.97;11.90;;;;;;;;;;5013458;28;20056;-57
2024/03/31 01:35:58;;;;;;;35.63;11.75;;;;;;;;;;5013864;28;20445;-55
2024/03/31 01:38:25;;;;;;;29.95;11.38;;;;;;;;;;5013473;28;20129;-53
2024/03/31 01:40:51;;;;;;;38.50;11.07;;;;;;;;;;5013813;28;20424;-54
2024/03/31 01:43:19;;;;;;;31.27;9.80;;;;;;;;;;5013398;28;20050;-57
2024/03/31 01:45:45;;;;;;;34.40;10.30;;;;;;;;;;5013599;28;20141;-56
2024/03/31 01:48:12;;;;;;;33.65;8.23;;;;;;;;;;5013586;28;20074;-55
2024/03/31 01:50:38;;;;;;;21.70;8.15;;;;;;;;;;5013333;28;20054;-54
2024/03/31 01:53:05;;;;;;;21.48;7.05;;;;;;;;;;5013457;28;20054;-57
2024/03/31 01:55:31;;;;;;;21.00;5.82;;;;;;;;;;5032493;28;20405;-56
2024/03/31 01:57:58;;;;;;;24.65;6.07;;;;;;;;;;5032905;28;20050;-54
2024/03/31 02:00:25;;;;;;;21.63;5.10;;;;;;;;;;5022883;28;20417;-52
2024/03/31 02:02:52;;;;;;;27.85;5.38;;;;;;;;;;5018320;28;20053;-54
2024/03/31 02:05:18;;;;;;;19.17;5.18;;;;;;;;;;5031673;28;20054;-53
2024/03/31 02:07:45;;;;;;;22.38;5.05;;;;;;;;;;5025557;28;20068;-53
2024/03/31 02:10:11;;;;;;;18.88;5.18;;;;;;;;;;5032830;28;20053;-58
2024/03/31 02:12:38;;;;;;;18.70;5.07;;;;;;;;;;5028368;28;20433;-51
2024/03/31 02:15:05;;;;;;;23.48;5.10;;;;;;;;;;5028445;28;20065;-55
2024/03/31 02:17:33;;;;;;;20.73;4.15;;;;;;;;;;5032270;28;20085;-54
2024/03/31 02:19:59;;;;;;;18.55;5.95;;;;;;;;;;5026185;28;20060;-58
2024/03/31 02:22:26;;;;;;;21.02;4.20;;;;;;;;;;5012591;28;20053;-55
2024/03/31 02:24:52;;;;;;;14.43;5.40;;;;;;;;;;5012692;28;20049;-57
2024/03/31 02:27:19;;;;;;;20.63;4.25;;;;;;;;;;5011838;28;20056;-55
2024/03/31 02:29:45;;;;;;;16.73;5.30;;;;;;;;;;4992883;28;20108;-51
2024/03/31 02:32:12;;;;;;;19.13;4.38;;;;;;;;;;5025695;28;20501;-55
2024/03/31 02:34:40;;;;;;;19.45;4.40;;;;;;;;;;5020225;28;20049;-53
2024/03/31 02:37:06;;;;;;;21.33;4.35;;;;;;;;;;5019860;28;20049;-56
2024/03/31 02:39:33;;;;;;;24.42;4.43;;;;;;;;;;5029095;28;20418;-54
2024/03/31 02:41:59;;;;;;;33.33;6.70;;;;;;;;;;5012531;28;20126;-54
2024/03/31 02:44:26;;;;;;;22.55;5.50;;;;;;;;;;5022166;28;20057;-51
2024/03/31 02:46:52;;;;;;;22.85;5.07;;;;;;;;;;5032308;28;20049;-56
2024/03/31 02:49:19;;;;;;;15.75;3.75;;;;;;;;;;5022781;28;20065;-53
2024/03/31 02:51:46;;;;;;;14.18;4.22;;;;;;;;;;5012012;28;20053;-58
2024/03/31 02:54:13;;;;;;;15.43;4.30;;;;;;;;;;5012089;28;20046;-54
2024/03/31 02:56:39;;;;;;;20.52;4.30;;;;;;;;;;5024231;28;20056;-58
2024/03/31 02:59:06;;;;;;;21.08;3.92;;;;;;;;;;5031672;28;20046;-54
2024/03/31 03:01:31;;;;;;;18.70;4.57;;;;;;;;;;5028817;28;20064;-56
2024/03/31 03:03:58;;;;;;;17.70;4.70;;;;;;;;;;5018210;28;20053;-58
2024/03/31 03:06:24;;;;;;;18.75;3.40;;;;;;;;;;5021876;28;20533;-55
2024/03/31 03:08:53;;;;;;;16.48;4.13;;;;;;;;;;5012214;28;20050;-58
2024/03/31 03:11:19;;;;;;;12.25;4.03;;;;;;;;;;5019937;28;20049;-57
2024/03/31 03:13:46;;;;;;;15.60;4.47;;;;;;;;;;5003830;28;20239;-53
2024/03/31 03:16:12;;;;;;;14.02;4.05;;;;;;;;;;5012131;28;20485;-55
2024/03/31 03:18:39;;;;;;;12.23;3.92;;;;;;;;;;5023453;28;20148;-58
2024/03/31 03:21:05;;;;;;;16.95;4.07;;;;;;;;;;5015914;28;20057;-57
2024/03/31 03:23:32;;;;;;;21.08;5.07;;;;;;;;;;5000957;28;20050;-57
2024/03/31 03:26:00;;;;;;;18.90;3.85;;;;;;;;;;5004816;28;20119;-58
2024/03/31 03:28:27;;;;;;;26.67;5.72;;;;;;;;;;5031785;28;20046;-57
2024/03/31 03:30:53;;;;;;;16.08;4.38;;;;;;;;;;5017794;28;20390;-58
2024/03/31 03:33:20;;;;;;;17.98;3.88;;;;;;;;;;5011609;28;20060;-58
2024/03/31 03:35:46;;;;;;;21.38;5.15;;;;;;;;;;5011575;28;20049;-58
2024/03/31 03:38:13;;;;;;;18.00;4.07;;;;;;;;;;5020245;28;20451;-51
2024/03/31 03:40:40;;;;;;;14.77;4.22;;;;;;;;;;5031491;28;20064;-56
2024/03/31 03:43:08;;;;;;;15.57;4.60;;;;;;;;;;5015621;28;20057;-54
2024/03/31 03:45:35;;;;;;;18.13;4.30;;;;;;;;;;5011625;28;20138;-55
2024/03/31 03:48:01;;;;;;;20.20;3.83;;;;;;;;;;5011487;28;20042;-55
2024/03/31 03:50:28;;;;;;;19.08;4.95;;;;;;;;;;5009429;28;20053;-57
2024/03/31 03:52:54;;;;;;;20.33;4.50;;;;;;;;;;4997858;28;20489;-58
2024/03/31 03:55:21;;;;;;;21.52;3.92;;;;;;;;;;5011854;28;20053;-57
2024/03/31 03:57:47;;;;;;;24.25;5.18;;;;;;;;;;5011534;28;20060;-55
2024/03/31 04:00:15;;;;;;;19.67;4.30;;;;;;;;;;5028206;28;20049;-57
2024/03/31 04:02:41;;;;;;;21.48;6.30;;;;;;;;;;5018972;28;20056;-51
2024/03/31 04:05:08;;;;;;;20.40;6.88;;;;;;;;;;5003984;28;20395;-56
2024/03/31 04:07:34;;;;;;;17.02;4.22;;;;;;;;;;5014401;28;20508;-55
2024/03/31 04:10:01;;;;;;;17.17;4.53;;;;;;;;;;5016593;28;20045;-56
2024/03/31 04:12:27;;;;;;;19.77;5.65;;;;;;;;;;5011198;28;20053;-58
2024/03/31 04:14:53;;;;;;;18.55;4.53;;;;;;;;;;5011322;28;20049;-58
2024/03/31 04:17:21;;;;;;;24.30;5.07;;;;;;;;;;4994228;28;20061;-57
2024/03/31 04:19:48;;;;;;;18.95;5.32;;;;;;;;;;4991543;28;20054;-51
2024/03/31 04:22:14;;;;;;;15.23;4.35;;;;;;;;;;5008111;28;20066;-55
2024/03/31 04:24:40;;;;;;;18.10;4.15;;;;;;;;;;5011310;28;20050;-54
2024/03/31 04:27:06;;;;;;;20.27;5.68;;;;;;;;;;5011479;28;20476;-51
2024/03/31 04:29:33;;;;;;;16.70;6.43;;;;;;;;;;4994803;28;20093;-55
2024/03/31 04:31:59;;;;;;;19.05;5.50;;;;;;;;;;5011394;28;20482;-52
2024/03/31 04:34:29;;;;;;;16.88;5.47;;;;;;;;;;5011224;28;20057;-57
2024/03/31 04:36:56;;;;;;;19.30;4.57;;;;;;;;;;5014848;28;20058;-55
2024/03/31 04:39:24;;;;;;;22.35;4.80;;;;;;;;;;5012957;28;20054;-51
2024/03/31 04:41:51;;;;;;;19.92;5.30;;;;;;;;;;4994913;28;20097;-52
2024/03/31 04:44:18;;;;;;;16.40;4.28;;;;;;;;;;4994815;28;20137;-54
2024/03/31 04:46:47;;;;;;;17.73;5.60;;;;;;;;;;4994862;28;20046;-55
2024/03/31 04:49:14;;;;;;;17.60;4.60;;;;;;;;;;4995147;28;20482;-55
2024/03/31 04:51:41;;;;;;;16.60;4.00;;;;;;;;;;4995012;28;20050;-53
2024/03/31 04:54:08;;;;;;;20.40;4.53;;;;;;;;;;4995021;28;20561;-54
2024/03/31 04:56:34;;;;;;;17.17;4.05;;;;;;;;;;4995018;28;20516;-57
2024/03/31 04:59:01;;;;;;;18.67;4.00;;;;;;;;;;4994956;28;20050;-57
2024/03/31 05:01:27;;;;;;;19.65;5.22;;;;;;;;;;4994894;28;20088;-51
2024/03/31 05:03:53;;;;;;;19.20;4.30;;;;;;;;;;4994490;28;20422;-55
2024/03/31 05:06:19;;;;;;;16.80;4.05;;;;;;;;;;4995683;28;20050;-53
2024/03/31 05:08:48;;;;;;;18.30;5.57;;;;;;;;;;5014131;28;20049;-50
2024/03/31 05:11:13;;;;;;;17.35;3.97;;;;;;;;;;5014217;28;20383;-51
2024/03/31 05:13:40;;;;;;;15.40;4.40;;;;;;;;;;5014204;28;20057;-53
2024/03/31 05:16:10;;;;;;;16.70;4.45;;;;;;;;;;5014001;28;20061;-54
2024/03/31 05:18:36;;;;;;;19.02;5.43;;;;;;;;;;5014180;28;20057;-55
2024/03/31 05:21:04;;;;;;;22.02;4.75;;;;;;;;;;5013892;28;20054;-51
2024/03/31 05:23:30;;;;;;;17.95;3.70;;;;;;;;;;5014043;28;20056;-49
2024/03/31 05:25:59;;;;;;;13.93;4.80;;;;;;;;;;5013721;28;20062;-53
2024/03/31 05:28:25;;;;;;;14.85;4.72;;;;;;;;;;4995887;28;20490;-53
2024/03/31 05:30:52;;;;;;;21.55;5.47;;;;;;;;;;4994037;28;20050;-55
2024/03/31 05:33:18;;;;;;;14.25;4.45;;;;;;;;;;4993910;28;20047;-52
2024/03/31 05:35:46;;;;;;;14.88;4.35;;;;;;;;;;4994345;28;20057;-50
2024/03/31 05:38:14;;;;;;;23.27;4.18;;;;;;;;;;4994392;28;20050;-52
2024/03/31 05:40:42;;;;;;;17.58;4.68;;;;;;;;;;5029565;28;20132;-53
2024/03/31 05:43:09;;;;;;;16.70;4.00;;;;;;;;;;5005640;28;20058;-51
2024/03/31 05:45:37;;;;;;;18.42;4.45;;;;;;;;;;4993883;28;20065;-52
2024/03/31 05:48:04;;;;;;;15.65;4.55;;;;;;;;;;5000749;28;20108;-52
2024/03/31 05:50:31;;;;;;;15.90;4.40;;;;;;;;;;5005083;28;20133;-53
2024/03/31 05:52:57;;;;;;;19.90;5.75;;;;;;;;;;5013115;28;20054;-52
2024/03/31 05:55:24;;;;;;;24.20;5.70;;;;;;;;;;5013176;28;20053;-56
2024/03/31 05:57:50;;;;;;;13.85;4.55;;;;;;;;;;5013511;28;20061;-56
2024/03/31 06:00:19;;;;;;;24.00;4.25;;;;;;;;;;5004898;28;20046;-54
2024/03/31 06:02:45;;;;;;;17.23;5.35;;;;;;;;;;5013331;28;20497;-56
2024/03/31 06:05:11;;;;;;;20.88;4.57;;;;;;;;;;5013521;28;20060;-50
2024/03/31 06:07:37;;;;;;;23.73;5.70;;;;;;;;;;5013120;28;20061;-56
2024/03/31 06:10:05;;;;;;;17.27;4.18;;;;;;;;;;5013123;28;20050;-51
2024/03/31 06:12:30;;;;;;;18.73;5.32;;;;;;;;;;5013282;28;20053;-51
2024/03/31 06:14:57;;;;;;;22.88;5.82;;;;;;;;;;5013029;28;20046;-52
2024/03/31 06:17:25;;;;;;;19.67;4.95;;;;;;;;;;5012933;28;20057;-52
2024/03/31 06:19:51;;;;;;;23.98;4.95;;;;;;;;;;5013163;28;20145;-57
2024/03/31 06:22:17;;;;;;;13.20;4.25;;;;;;;;;;5013209;28;20076;-53
2024/03/31 06:24:47;;;;;;;22.02;4.90;;;;;;;;;;5013459;28;20437;-52
2024/03/31 06:27:13;;;;;;;22.27;4.53;;;;;;;;;;5029297;28;20053;-51
2024/03/31 06:29:40;;;;;;;14.50;3.85;;;;;;;;;;5032932;28;20060;-58
2024/03/31 06:32:07;;;;;;;16.52;4.95;;;;;;;;;;5032260;28;20053;-57
2024/03/31 06:34:35;;;;;;;19.58;4.40;;;;;;;;;;5032709;28;20096;-57
2024/03/31 06:37:01;;;;;;;29.88;6.30;;;;;;;;;;5032387;28;20053;-58
2024/03/31 06:39:29;;;;;;;22.55;5.50;;;;;;;;;;5032299;28;20049;-57
2024/03/31 06:41:56;;;;;;;21.75;4.65;;;;;;;;;;5032520;28;20471;-58
2024/03/31 06:44:22;;;;;;;30.77;11.85;;;;;;;;;;5032399;28;20045;-52
2024/03/31 06:46:49;;;;;;;32.58;11.18;;;;;;;;;;5032069;28;20062;-54
2024/03/31 06:49:15;;;;;;;30.27;10.18;;;;;;;;;;5032217;28;20060;-57
2024/03/31 06:51:43;;;;;;;26.25;8.05;;;;;;;;;;5032062;28;20061;-56
2024/03/31 06:54:09;;;;;;;27.55;7.53;;;;;;;;;;5032334;28;20610;-55
2024/03/31 06:56:36;;;;;;;20.02;6.50;;;;;;;;;;5032095;28;20053;-52
2024/03/31 06:59:02;;;;;;;20.63;6.22;;;;;;;;;;5031378;28;20056;-56
2024/03/31 07:01:29;;;;;;;19.05;4.95;;;;;;;;;;5031944;28;20089;-55
2024/03/31 07:03:55;;;;;;;25.98;6.47;;;;;;;;;;5031973;28;20060;-54
2024/03/31 07:06:22;;;;;;;26.33;6.15;;;;;;;;;;5031899;28;20045;-57
2024/03/31 07:08:49;;;;;;;18.05;6.00;;;;;;;;;;5032091;28;20490;-56
2024/03/31 07:11:16;;;;;;;21.67;5.03;;;;;;;;;;5031828;28;20057;-59
2024/03/31 07:13:42;;;;;;;20.48;5.68;;;;;;;;;;5031686;28;20053;-57
2024/03/31 07:16:09;;;;;;;17.20;3.80;;;;;;;;;;5031701;28;20059;-58
2024/03/31 07:18:35;;;;;;;19.20;4.65;;;;;;;;;;5031659;28;20053;-57
2024/03/31 07:21:01;;;;;;;17.65;3.95;;;;;;;;;;5031820;28;20052;-59
2024/03/31 07:23:27;;;;;;;19.02;4.68;;;;;;;;;;5031688;28;20057;-59
2024/03/31 07:25:57;;;;;;;19.13;5.13;;;;;;;;;;5031758;28;20060;-54
2024/03/31 07:28:25;;;;;;;20.00;4.90;;;;;;;;;;5031750;28;20045;-58
2024/03/31 07:30:52;;;;;;;23.35;5.32;;;;;;;;;;5031627;28;20060;-58
2024/03/31 07:33:18;;;;;;;15.98;4.85;;;;;;;;;;5031857;28;20434;-58
2024/03/31 07:35:45;;;;;;;16.35;3.70;;;;;;;;;;5031581;28;20050;-56
2024/03/31 07:38:11;;;;;;;21.30;5.00;;;;;;;;;;5031834;28;20050;-57
2024/03/31 07:40:38;;;;;;;28.08;6.55;;;;;;;;;;5031460;28;20049;-55
2024/03/31 07:43:08;;;;;;;20.67;4.82;;;;;;;;;;5031460;28;20049;-54
2024/03/31 07:45:35;;;;;;;15.60;3.63;;;;;;;;;;5031455;28;20053;-58
2024/03/31 07:48:01;;;;;;;22.88;5.20;;;;;;;;;;5031719;28;20052;-54
2024/03/31 07:50:28;;;;;;;18.05;6.32;;;;;;;;;;5031474;28;20041;-55
2024/03/31 07:52:54;;;;;;;21.90;4.47;;;;;;;;;;5031493;28;20497;-56
2024/03/31 07:55:21;;;;;;;19.50;4.68;;;;;;;;;;5031558;28;20049;-55
2024/03/31 07:57:47;;;;;;;19.00;4.95;;;;;;;;;;5031598;28;20053;-59
2024/03/31 08:00:16;;;;;;;17.63;4.10;;;;;;;;;;5031415;28;20050;-59
2024/03/31 08:02:41;;;;;;;20.52;4.85;;;;;;;;;;5031253;28;20057;-59
2024/03/31 08:05:09;;;;;;;20.08;4.53;;;;;;;;;;5031342;28;20050;-59
2024/03/31 08:07:35;;;;;;;16.48;4.30;;;;;;;;;;5031558;28;20060;-57
2024/03/31 08:10:03;;;;;;;20.30;4.93;;;;;;;;;;5032199;28;20456;-56
2024/03/31 08:12:29;;;;;;;21.83;5.32;;;;;;;;;;5035020;28;20068;-57
2024/03/31 08:14:56;;;;;;;18.20;5.55;;;;;;;;;;5035271;28;20053;-58
2024/03/31 08:17:23;;;;;;;20.50;5.28;;;;;;;;;;5034878;28;20057;-57
2024/03/31 08:19:50;;;;;;;16.90;4.55;;;;;;;;;;5034781;28;20052;-56
2024/03/31 08:22:17;;;;;;;19.92;4.53;;;;;;;;;;5035093;28;20123;-58
2024/03/31 08:24:46;;;;;;;11.73;3.33;;;;;;;;;;5034812;28;20063;-57
2024/03/31 08:27:12;;;;;;;26.40;4.78;;;;;;;;;;5034736;28;20108;-54
2024/03/31 08:29:39;;;;;;;20.63;5.30;;;;;;;;;;5035121;28;20053;-56
2024/03/31 08:32:06;;;;;;;21.70;5.65;;;;;;;;;;5034759;28;20045;-57
2024/03/31 08:34:35;;;;;;;20.08;4.15;;;;;;;;;;5034942;28;20513;-59
2024/03/31 08:37:00;;;;;;;24.58;4.82;;;;;;;;;;5034701;28;20417;-58
2024/03/31 08:39:27;;;;;;;14.90;4.55;;;;;;;;;;5034893;28;20045;-55
2024/03/31 08:41:58;;;;;;;19.60;4.45;;;;;;;;;;5034664;28;20052;-58
2024/03/31 08:44:25;;;;;;;18.63;4.82;;;;;;;;;;5034399;28;20057;-57
2024/03/31 08:46:52;;;;;;;25.83;6.18;;;;;;;;;;5034683;28;20497;-58
2024/03/31 08:49:21;;;;;;;24.65;5.28;;;;;;;;;;5034803;28;20053;-54
2024/03/31 08:51:49;;;;;;;19.73;4.93;;;;;;;;;;5034356;28;20056;-55
2024/03/31 08:54:16;;;;;;;18.50;4.30;;;;;;;;;;5034595;28;20149;-57
2024/03/31 08:56:42;;;;;;;18.42;4.53;;;;;;;;;;5034607;28;20512;-58
2024/03/31 08:59:09;;;;;;;22.05;5.45;;;;;;;;;;5034681;28;20049;-58
2024/03/31 09:01:36;;;;;;;16.42;4.25;;;;;;;;;;5034535;28;20485;-58
2024/03/31 09:04:04;;;;;;;21.23;5.07;;;;;;;;;;5034256;28;20519;-58
2024/03/31 09:06:30;;;;;;;19.15;4.78;;;;;;;;;;5034038;28;20049;-56
2024/03/31 09:09:00;;;;;;;20.08;5.10;;;;;;;;;;5034481;28;20053;-59
2024/03/31 09:11:27;;;;;;;23.45;3.95;;;;;;;;;;5034901;28;20431;-55
2024/03/31 09:13:53;;;;;;;24.83;5.00;;;;;;;;;;5034652;28;20045;-58
2024/03/31 09:16:21;;;;;;;17.60;3.63;;;;;;;;;;5034271;28;20056;-58
2024/03/31 09:18:47;;;;;;;22.63;5.63;;;;;;;;;;5034499;28;20057;-58
2024/03/31 09:21:14;;;;;;;16.20;3.75;;;;;;;;;;5033837;28;20390;-59
2024/03/31 09:23:40;;;;;;;17.42;3.63;;;;;;;;;;5034222;28;20485;-55
2024/03/31 09:26:09;;;;;;;14.88;3.58;;;;;;;;;;5034136;28;20057;-57
2024/03/31 09:28:36;;;;;;;16.15;3.97;;;;;;;;;;5033949;28;20515;-58
2024/03/31 09:31:03;;;;;;;27.33;5.80;;;;;;;;;;5033987;28;20404;-57
2024/03/31 09:33:32;;;;;;;23.88;4.70;;;;;;;;;;5033838;28;20201;-55
2024/03/31 09:35:59;;;;;;;16.65;3.70;;;;;;;;;;5033915;28;20057;-57
2024/03/31 09:38:25;;;;;;;21.33;4.55;;;;;;;;;;5033733;28;20413;-58
2024/03/31 09:40:52;;;;;;;17.95;3.13;;;;;;;;;;5033787;28;20099;-56
2024/03/31 09:43:21;;;;;;;14.88;3.90;;;;;;;;;;5033219;28;20049;-58
2024/03/31 09:45:49;;;;;;;18.52;4.55;;;;;;;;;;5033686;28;20147;-58
2024/03/31 09:48:19;;;;;;;21.45;4.50;;;;;;;;;;5033632;28;20076;-58
2024/03/31 09:50:51;;;;;;;22.02;4.18;;;;;;;;;;5033258;28;20129;-58
2024/03/31 09:53:18;;;;;;;20.33;4.72;;;;;;;;;;5033769;28;20057;-57
2024/03/31 09:55:48;;;;;;;15.80;3.50;;;;;;;;;;5033461;28;20049;-58
2024/03/31 09:58:17;;;;;;;14.57;3.63;;;;;;;;;;5033242;28;20049;-53
2024/03/31 10:00:46;;;;;;;28.65;5.03;;;;;;;;;;5033008;28;20045;-59
2024/03/31 10:03:28;;;;;;;18.13;3.75;;;;;;;;;;5033246;28;20106;-58
2024/03/31 10:05:56;;;;;;;24.27;4.82;;;;;;;;;;5033130;28;20046;-57
2024/03/31 10:08:26;;;;;;;20.30;3.30;;;;;;;;;;5033419;28;20053;-56
2024/03/31 10:10:54;;;;;;;17.48;3.33;;;;;;;;;;5033215;28;20492;-57
2024/03/31 10:13:21;;;;;;;15.95;3.72;;;;;;;;;;5032613;28;20053;-58
2024/03/31 10:15:51;;;;;;;26.50;4.57;;;;;;;;;;5033141;28;20049;-57
2024/03/31 10:18:18;;;;;;;15.23;3.47;;;;;;;;;;5032817;28;20057;-58
2024/03/31 10:20:46;;;;;;;15.95;3.90;;;;;;;;;;5032859;28;20124;-56
2024/03/31 10:23:13;;;;;;;16.13;4.63;;;;;;;;;;5032857;28;20095;-57
2024/03/31 10:25:42;;;;;;;19.88;5.07;;;;;;;;;;5032621;28;20086;-57
2024/03/31 10:28:09;;;;;;;20.90;4.30;;;;;;;;;;5032740;28;20049;-56
2024/03/31 10:30:36;;;;;;;16.65;4.18;;;;;;;;;;5032780;28;20678;-58
2024/03/31 10:33:04;;;;;;;14.52;4.10;;;;;;;;;;5031929;28;20362;-57
2024/03/31 10:35:34;;;;;;;22.63;4.88;;;;;;;;;;5032365;28;20045;-54
2024/03/31 10:38:01;;;;;;;21.90;4.78;;;;;;;;;;5032743;28;20436;-57
2024/03/31 10:40:29;;;;;;;20.23;4.55;;;;;;;;;;5032591;28;20053;-56
2024/03/31 10:42:56;;;;;;;18.17;3.40;;;;;;;;;;5032391;28;20421;-58
2024/03/31 10:45:24;;;;;;;19.92;4.07;;;;;;;;;;5032306;28;20045;-59
2024/03/31 10:47:50;;;;;;;15.95;4.35;;;;;;;;;;5032169;28;20053;-59
2024/03/31 10:50:24;;;;;;;14.50;4.38;;;;;;;;;;5032448;28;20658;-56
2024/03/31 10:52:50;;;;;;;19.67;3.90;;;;;;;;;;5032121;28;20064;-54
2024/03/31 10:55:19;;;;;;;17.60;3.95;;;;;;;;;;5032175;28;20049;-56
2024/03/31 10:57:53;;;;;;;21.00;5.00;;;;;;;;;;5032030;28;20060;-57
2024/03/31 11:00:20;;;;;;;24.17;5.40;;;;;;;;;;5032370;28;20501;-58
2024/03/31 11:02:49;;;;;;;19.25;5.28;;;;;;;;;;5032006;28;20049;-59
2024/03/31 11:05:21;;;;;;;20.00;3.75;;;;;;;;;;5032272;28;20481;-54
2024/03/31 11:07:48;;;;;;;18.48;3.75;;;;;;;;;;5032099;28;20049;-58
2024/03/31 11:10:16;;;;;;;24.80;4.28;;;;;;;;;;5031832;28;20046;-56
2024/03/31 11:12:42;;;;;;;22.17;4.45;;;;;;;;;;5031640;28;20056;-58
2024/03/31 11:15:09;;;;;;;28.50;6.30;;;;;;;;;;5031926;28;20054;-57
2024/03/31 11:17:35;;;;;;;20.63;4.38;;;;;;;;;;5031775;28;20045;-55
2024/03/31 11:20:04;;;;;;;21.13;5.00;;;;;;;;;;5031777;28;20052;-55
2024/03/31 11:22:33;;;;;;;18.58;4.88;;;;;;;;;;5031941;28;20390;-58
2024/03/31 11:25:00;;;;;;;18.42;4.47;;;;;;;;;;5031987;28;20045;-58
2024/03/31 11:27:27;;;;;;;20.50;4.93;;;;;;;;;;5031591;28;20050;-58
2024/03/31 11:29:55;;;;;;;17.92;4.28;;;;;;;;;;5031649;28;20045;-58
2024/03/31 11:32:21;;;;;;;26.00;4.70;;;;;;;;;;5031436;28;20061;-55
2024/03/31 11:34:48;;;;;;;20.45;4.25;;;;;;;;;;5031994;28;20055;-58
2024/03/31 11:37:14;;;;;;;17.20;4.72;;;;;;;;;;5031947;28;20054;-58
2024/03/31 11:39:43;;;;;;;15.15;3.70;;;;;;;;;;5031287;28;20096;-56
2024/03/31 11:42:10;;;;;;;19.00;4.22;;;;;;;;;;5031514;28;20050;-56
2024/03/31 11:44:37;;;;;;;18.98;4.30;;;;;;;;;;5033113;28;20103;-59
2024/03/31 11:47:04;;;;;;;16.00;3.38;;;;;;;;;;5035620;28;20055;-56
2024/03/31 11:49:32;;;;;;;22.13;4.78;;;;;;;;;;5035556;28;20049;-57
2024/03/31 11:51:58;;;;;;;19.25;4.93;;;;;;;;;;5035437;28;20053;-59
2024/03/31 11:54:26;;;;;;;16.48;3.97;;;;;;;;;;5035694;28;20099;-59
2024/03/31 11:56:54;;;;;;;18.58;3.33;;;;;;;;;;5035765;28;20054;-59
2024/03/31 11:59:22;;;;;;;18.08;3.92;;;;;;;;;;5035501;28;20507;-55
2024/03/31 12:01:56;;;;;;;15.98;3.28;;;;;;;;;;5035594;28;20420;-56
2024/03/31 12:04:23;;;;;;;17.55;4.32;;;;;;;;;;5035708;28;20049;-58
2024/03/31 12:06:50;;;;;;;21.02;4.22;;;;;;;;;;5035580;28;20061;-59
2024/03/31 12:09:17;;;;;;;14.50;3.10;;;;;;;;;;5035600;28;20041;-59
2024/03/31 12:11:43;;;;;;;13.63;3.15;;;;;;;;;;5035359;28;20398;-59
2024/03/31 12:14:13;;;;;;;18.60;4.43;;;;;;;;;;5035360;28;20420;-59
2024/03/31 12:16:41;;;;;;;16.50;3.30;;;;;;;;;;5036222;28;20049;-58
2024/03/31 12:19:08;;;;;;;15.25;3.38;;;;;;;;;;5034822;28;20136;-59
2024/03/31 12:21:35;;;;;;;12.23;4.10;;;;;;;;;;5034853;28;20042;-59
2024/03/31 12:24:02;;;;;;;14.00;4.50;;;;;;;;;;5034923;28;20135;-55
2024/03/31 12:26:30;;;;;;;16.60;3.55;;;;;;;;;;5034936;28;20049;-59
2024/03/31 12:28:57;;;;;;;22.30;5.07;;;;;;;;;;5034820;28;20052;-59
2024/03/31 12:31:25;;;;;;;16.25;3.70;;;;;;;;;;5035132;28;20050;-58
2024/03/31 12:33:54;;;;;;;18.20;4.15;;;;;;;;;;5034929;28;20084;-57
2024/03/31 12:36:20;;;;;;;17.23;3.33;;;;;;;;;;5034989;28;20552;-56
2024/03/31 12:38:47;;;;;;;23.15;4.00;;;;;;;;;;5034625;28;20042;-57
2024/03/31 12:41:16;;;;;;;14.68;3.38;;;;;;;;;;5035041;28;20080;-59
2024/03/31 12:43:43;;;;;;;14.43;3.08;;;;;;;;;;5034603;28;20053;-57
2024/03/31 12:46:10;;;;;;;16.95;5.20;;;;;;;;;;5034590;28;20061;-59
2024/03/31 12:48:39;;;;;;;18.38;3.42;;;;;;;;;;5034565;28;20049;-58
2024/03/31 12:51:05;;;;;;;19.13;3.40;;;;;;;;;;5034943;28;20045;-59
2024/03/31 12:53:33;;;;;;;13.18;3.03;;;;;;;;;;5034299;28;20107;-59
2024/03/31 12:55:59;;;;;;;15.07;3.20;;;;;;;;;;5033498;28;20061;-59
2024/03/31 12:58:27;;;;;;;13.68;3.33;;;;;;;;;;5034647;28;20064;-58
2024/03/31 13:00:56;;;;;;;15.43;3.33;;;;;;;;;;5034160;28;20081;-58
2024/03/31 13:03:23;;;;;;;16.08;2.75;;;;;;;;;;5034385;28;20056;-59
2024/03/31 13:05:51;;;;;;;13.35;2.72;;;;;;;;;;5034131;28;20057;-58
2024/03/31 13:08:20;;;;;;;12.18;2.80;;;;;;;;;;5034362;28;20053;-57
2024/03/31 13:10:46;;;;;;;14.88;3.38;;;;;;;;;;5034731;28;20049;-59
2024/03/31 13:13:14;;;;;;;14.27;3.50;;;;;;;;;;5034167;28;20504;-57
2024/03/31 13:15:40;;;;;;;16.33;4.03;;;;;;;;;;5033901;28;20049;-58
2024/03/31 13:18:08;;;;;;;18.45;4.38;;;;;;;;;;5034038;28;20081;-58
2024/03/31 13:20:35;;;;;;;17.95;3.50;;;;;;;;;;5033752;28;20045;-58
2024/03/31 13:23:04;;;;;;;12.30;3.72;;;;;;;;;;5034164;28;20050;-55
2024/03/31 13:25:31;;;;;;;12.57;3.50;;;;;;;;;;5034059;28;20515;-57
2024/03/31 13:27:58;;;;;;;19.70;4.20;;;;;;;;;;5033705;28;20136;-59
2024/03/31 13:30:25;;;;;;;20.25;3.88;;;;;;;;;;5033964;28;20408;-56
2024/03/31 13:32:52;;;;;;;16.77;3.15;;;;;;;;;;5033884;28;20115;-59
2024/03/31 13:35:18;;;;;;;9.95;2.28;;;;;;;;;;5033614;28;20100;-59
2024/03/31 13:37:45;;;;;;;13.88;3.42;;;;;;;;;;5033395;28;20057;-58
2024/03/31 13:40:12;;;;;;;9.25;2.53;;;;;;;;;;5033790;28;20045;-57
2024/03/31 13:42:40;;;;;;;12.15;2.22;;;;;;;;;;5033702;28;20053;-57
2024/03/31 13:45:06;;;;;;;13.95;2.97;;;;;;;;;;5033333;28;20057;-59
2024/03/31 13:47:33;;;;;;;11.40;2.60;;;;;;;;;;5033351;28;20088;-58
2024/03/31 13:49:59;;;;;;;12.27;2.80;;;;;;;;;;5033837;28;20053;-57
2024/03/31 13:52:26;;;;;;;10.00;1.98;;;;;;;;;;5033821;28;20690;-57
2024/03/31 13:54:52;;;;;;;11.95;1.95;;;;;;;;;;5033326;28;20066;-59
2024/03/31 13:57:20;;;;;;;11.13;2.67;;;;;;;;;;5033453;28;20049;-57
2024/03/31 13:59:46;;;;;;;14.13;2.28;;;;;;;;;;5033583;28;20057;-56
2024/03/31 14:02:13;;;;;;;12.95;2.83;;;;;;;;;;5032993;28;20436;-55
2024/03/31 14:04:38;;;;;;;15.55;3.58;;;;;;;;;;5032915;28;20060;-58
2024/03/31 14:07:06;;;;;;;10.10;2.15;;;;;;;;;;5033013;28;20049;-58
2024/03/31 14:09:32;;;;;;;9.32;3.13;;;;;;;;;;5033515;28;20191;-57
2024/03/31 14:11:59;;;;;;;10.70;2.20;;;;;;;;;;5033091;28;20659;-57
2024/03/31 14:14:26;;;;;;;8.65;2.75;;;;;;;;;;5032986;28;20049;-56
2024/03/31 14:16:53;;;;;;;11.18;2.60;;;;;;;;;;5032998;28;20050;-59
2024/03/31 14:19:19;;;;;;;10.35;2.38;;;;;;;;;;5032964;28;20413;-59
2024/03/31 14:21:46;;;;;;;17.00;2.92;;;;;;;;;;5033177;28;20056;-57
2024/03/31 14:24:11;;;;;;;9.98;2.00;;;;;;;;;;5033170;28;20425;-58
2024/03/31 14:26:38;;;;;;;7.93;1.77;;;;;;;;;;5032982;28;20056;-58